Time;durP1;ratioP1;P1;durP2;ratioP2;P2;SDS_P1;SDS_P2;PMS_P1;PMS_P2;Temp;Humidity;BMP_temperature;BMP_pressure;BME280_temperature;BME280_humidity;BME280_pressure;Samples;Min_cycle;Max_cycle;Signal;HPM_P1;HPM_P2
2022/01/01 00:01:46;;;;;;;68.82;38.88;;;;;;;;;;5028387;28;20376;-71
2022/01/01 00:04:12;;;;;;;56.60;32.30;;;;;;;;;;5011699;28;20045;-69
2022/01/01 00:06:38;;;;;;;55.58;33.38;;;;;;;;;;5011527;28;20045;-69
2022/01/01 00:09:04;;;;;;;49.60;31.30;;;;;;;;;;5011728;28;20061;-69
2022/01/01 00:11:30;;;;;;;49.65;30.67;;;;;;;;;;5011243;28;20060;-69
2022/01/01 00:13:56;;;;;;;60.30;35.25;;;;;;;;;;5036251;28;20411;-69
2022/01/01 00:16:21;;;;;;;58.88;34.33;;;;;;;;;;5033112;28;20036;-68
2022/01/01 00:18:47;;;;;;;62.10;35.47;;;;;;;;;;5029089;28;20113;-69
2022/01/01 00:21:13;;;;;;;60.67;36.33;;;;;;;;;;5010279;28;20026;-70
2022/01/01 00:23:39;;;;;;;67.53;38.90;;;;;;;;;;5011511;28;20392;-70
2022/01/01 00:26:05;;;;;;;79.35;39.63;;;;;;;;;;5010918;28;20107;-69
2022/01/01 00:28:30;;;;;;;67.18;38.28;;;;;;;;;;5011396;28;20058;-68
2022/01/01 00:30:56;;;;;;;73.28;41.90;;;;;;;;;;5011422;28;20120;-68
2022/01/01 00:33:22;;;;;;;73.35;42.10;;;;;;;;;;5010648;28;20388;-68
2022/01/01 00:35:48;;;;;;;66.47;37.55;;;;;;;;;;5010068;28;20042;-69
2022/01/01 00:38:13;;;;;;;76.28;43.53;;;;;;;;;;5023405;28;20104;-70
2022/01/01 00:40:39;;;;;;;102.30;52.92;;;;;;;;;;5030042;28;20511;-68
2022/01/01 00:43:05;;;;;;;127.45;64.80;;;;;;;;;;5027072;28;20073;-69
2022/01/01 00:45:31;;;;;;;120.20;57.65;;;;;;;;;;5045810;28;20480;-68
2022/01/01 00:47:56;;;;;;;112.40;57.53;;;;;;;;;;5033411;28;20116;-69
2022/01/01 00:50:22;;;;;;;122.15;58.08;;;;;;;;;;5034913;28;20088;-68
2022/01/01 00:52:50;;;;;;;126.88;56.38;;;;;;;;;;5034669;28;20065;-68
2022/01/01 00:55:15;;;;;;;99.43;50.83;;;;;;;;;;5039836;28;20021;-70
2022/01/01 00:57:41;;;;;;;102.03;48.15;;;;;;;;;;5029181;28;20050;-69
2022/01/01 01:00:08;;;;;;;98.32;48.58;;;;;;;;;;5015411;28;20413;-69
2022/01/01 01:02:34;;;;;;;114.85;56.78;;;;;;;;;;5014252;28;20428;-70
2022/01/01 01:05:00;;;;;;;98.72;51.50;;;;;;;;;;5014642;28;20117;-69
2022/01/01 01:07:26;;;;;;;94.80;46.72;;;;;;;;;;5021758;28;20067;-69
2022/01/01 01:09:51;;;;;;;97.63;50.10;;;;;;;;;;5034480;28;20060;-69
2022/01/01 01:12:23;;;;;;;92.85;48.40;;;;;;;;;;5033888;28;20443;-69
2022/01/01 01:14:48;;;;;;;89.20;46.08;;;;;;;;;;5034452;28;20044;-69
2022/01/01 01:17:14;;;;;;;87.18;45.88;;;;;;;;;;5027521;28;20480;-69
2022/01/01 01:19:40;;;;;;;95.22;46.88;;;;;;;;;;5014088;28;20037;-70
2022/01/01 01:22:06;;;;;;;74.68;42.58;;;;;;;;;;5029783;28;20029;-69
2022/01/01 01:24:33;;;;;;;73.90;39.55;;;;;;;;;;5033463;28;20495;-72
2022/01/01 01:27:02;;;;;;;80.78;42.67;;;;;;;;;;5033081;28;20080;-69
2022/01/01 01:29:34;;;;;;;88.10;46.90;;;;;;;;;;5034400;28;20099;-70
2022/01/01 01:32:00;;;;;;;78.35;41.40;;;;;;;;;;5033751;28;20128;-70
2022/01/01 01:34:26;;;;;;;72.80;41.17;;;;;;;;;;5033675;28;20108;-70
2022/01/01 01:36:52;;;;;;;78.35;41.47;;;;;;;;;;5027682;28;20034;-70
2022/01/01 01:39:18;;;;;;;83.60;44.50;;;;;;;;;;5017677;28;20030;-69
2022/01/01 01:41:45;;;;;;;78.80;40.92;;;;;;;;;;5012961;28;20499;-70
2022/01/01 01:44:23;;;;;;;74.68;43.10;;;;;;;;;;5013610;28;20037;-72
2022/01/01 01:46:49;;;;;;;77.30;40.17;;;;;;;;;;5012333;28;20030;-69
2022/01/01 01:49:15;;;;;;;78.03;41.75;;;;;;;;;;5012173;28;20018;-71
2022/01/01 01:51:41;;;;;;;77.45;41.90;;;;;;;;;;5013493;28;20091;-70
2022/01/01 01:54:09;;;;;;;75.47;43.17;;;;;;;;;;5013259;28;20026;-67
2022/01/01 01:56:36;;;;;;;96.43;48.97;;;;;;;;;;5021953;28;20044;-68
2022/01/01 01:59:02;;;;;;;82.45;45.72;;;;;;;;;;5032395;28;20499;-68
2022/01/01 02:01:27;;;;;;;90.03;45.45;;;;;;;;;;5033705;28;20112;-68
2022/01/01 02:03:56;;;;;;;82.65;43.80;;;;;;;;;;5032351;28;20495;-67
2022/01/01 02:06:24;;;;;;;75.47;43.33;;;;;;;;;;5031982;28;20531;-68
2022/01/01 02:08:52;;;;;;;130.00;64.57;;;;;;;;;;5033050;28;20030;-66
2022/01/01 02:11:20;;;;;;;125.82;67.18;;;;;;;;;;5033369;28;20072;-69
2022/01/01 02:18:51;;;;;;;114.35;58.50;;;;;;;;;;5032650;28;20087;-71
2022/01/01 02:21:19;;;;;;;111.18;56.92;;;;;;;;;;5032504;28;20469;-68
2022/01/01 02:23:46;;;;;;;93.95;50.60;;;;;;;;;;5032413;28;20067;-69
2022/01/01 02:26:15;;;;;;;92.75;52.55;;;;;;;;;;5032624;28;20033;-70
2022/01/01 02:28:43;;;;;;;90.47;49.92;;;;;;;;;;5032776;28;20060;-67
2022/01/01 02:31:09;;;;;;;88.78;46.28;;;;;;;;;;5031790;28;20048;-67
2022/01/01 02:33:37;;;;;;;85.72;44.15;;;;;;;;;;5032373;28;20078;-68
2022/01/01 02:36:04;;;;;;;80.05;42.95;;;;;;;;;;5032130;28;20186;-68
2022/01/01 02:38:32;;;;;;;77.72;43.10;;;;;;;;;;5035006;28;20453;-68
2022/01/01 02:40:58;;;;;;;82.35;44.42;;;;;;;;;;5032068;28;20058;-68
2022/01/01 02:43:25;;;;;;;68.28;39.25;;;;;;;;;;5035183;28;20111;-68
2022/01/01 02:45:51;;;;;;;74.13;37.33;;;;;;;;;;5048306;28;20055;-68
2022/01/01 02:48:17;;;;;;;63.50;35.65;;;;;;;;;;5052114;28;20360;-67
2022/01/01 02:50:43;;;;;;;61.45;35.95;;;;;;;;;;5052377;28;20029;-68
2022/01/01 02:53:16;;;;;;;64.05;36.08;;;;;;;;;;5052522;28;20024;-68
2022/01/01 02:55:43;;;;;;;68.07;35.65;;;;;;;;;;5051848;28;20561;-67
2022/01/01 02:58:10;;;;;;;60.10;34.55;;;;;;;;;;5051535;28;20031;-69
2022/01/01 03:00:36;;;;;;;59.67;31.85;;;;;;;;;;5056344;28;20045;-68
2022/01/01 03:03:02;;;;;;;51.42;30.52;;;;;;;;;;5052836;28;20379;-68
2022/01/01 03:05:30;;;;;;;48.38;28.08;;;;;;;;;;5052006;28;20384;-68
2022/01/01 03:07:56;;;;;;;48.83;28.83;;;;;;;;;;5052208;28;20167;-68
2022/01/01 03:10:22;;;;;;;54.33;28.33;;;;;;;;;;5055239;28;20072;-68
2022/01/01 03:12:48;;;;;;;46.67;27.48;;;;;;;;;;5050648;28;20492;-68
2022/01/01 03:15:13;;;;;;;44.30;26.67;;;;;;;;;;5036130;28;20049;-69
2022/01/01 03:17:39;;;;;;;48.20;28.85;;;;;;;;;;5032452;28;20029;-70
2022/01/01 03:20:06;;;;;;;51.13;28.20;;;;;;;;;;5032216;28;20042;-69
2022/01/01 03:22:32;;;;;;;45.33;25.38;;;;;;;;;;5031695;28;20488;-68
2022/01/01 03:24:58;;;;;;;43.40;25.67;;;;;;;;;;5035602;28;20065;-67
2022/01/01 03:27:23;;;;;;;44.08;26.70;;;;;;;;;;5030715;28;20033;-67
2022/01/01 03:29:49;;;;;;;50.63;29.20;;;;;;;;;;5030372;28;20041;-67
2022/01/01 03:32:15;;;;;;;46.13;26.67;;;;;;;;;;5032060;28;20036;-68
2022/01/01 03:34:42;;;;;;;45.80;27.27;;;;;;;;;;5031749;28;20041;-68
2022/01/01 03:37:08;;;;;;;54.15;29.27;;;;;;;;;;5031900;28;20026;-68
2022/01/01 03:39:34;;;;;;;46.88;28.70;;;;;;;;;;5031048;28;20067;-69
2022/01/01 03:41:59;;;;;;;46.92;27.30;;;;;;;;;;5030420;28;20034;-67
2022/01/01 03:44:25;;;;;;;54.90;29.92;;;;;;;;;;5030727;28;20025;-69
2022/01/01 03:46:57;;;;;;;53.58;29.38;;;;;;;;;;5030632;28;20022;-68
2022/01/01 03:49:23;;;;;;;50.15;29.00;;;;;;;;;;5030596;28;20029;-69
2022/01/01 03:51:49;;;;;;;43.85;26.70;;;;;;;;;;5030305;28;20488;-69
2022/01/01 03:54:16;;;;;;;46.15;25.67;;;;;;;;;;5031453;28;20033;-67
2022/01/01 03:56:42;;;;;;;49.20;29.23;;;;;;;;;;5031641;28;20473;-67
2022/01/01 03:59:08;;;;;;;52.58;30.38;;;;;;;;;;5030855;28;20437;-68
2022/01/01 04:01:34;;;;;;;50.97;29.05;;;;;;;;;;5031175;28;20018;-67
2022/01/01 04:04:00;;;;;;;57.20;30.17;;;;;;;;;;5031085;28;20037;-67
2022/01/01 04:06:25;;;;;;;49.50;29.58;;;;;;;;;;5028698;28;20026;-68
2022/01/01 04:08:51;;;;;;;50.50;29.20;;;;;;;;;;5030242;28;20033;-68
2022/01/01 04:11:17;;;;;;;52.63;30.15;;;;;;;;;;5022154;28;20026;-67
2022/01/01 04:13:43;;;;;;;55.03;29.60;;;;;;;;;;5011369;28;20034;-67
2022/01/01 04:16:11;;;;;;;57.15;31.00;;;;;;;;;;5011842;28;20018;-68
2022/01/01 04:18:39;;;;;;;51.95;30.33;;;;;;;;;;5011066;28;20030;-67
2022/01/01 04:21:10;;;;;;;55.28;33.03;;;;;;;;;;5010401;28;20029;-68
2022/01/01 04:23:37;;;;;;;54.72;31.88;;;;;;;;;;5014972;28;20397;-67
2022/01/01 04:26:03;;;;;;;55.45;32.08;;;;;;;;;;5015573;28;20109;-67
2022/01/01 04:28:28;;;;;;;55.70;31.00;;;;;;;;;;5015589;28;20034;-68
2022/01/01 04:30:54;;;;;;;54.22;30.63;;;;;;;;;;5014647;28;20053;-67
2022/01/01 04:33:20;;;;;;;54.33;30.77;;;;;;;;;;5015556;28;20420;-69
2022/01/01 04:35:46;;;;;;;56.05;31.40;;;;;;;;;;5014222;28;20113;-67
2022/01/01 04:38:29;;;;;;;55.47;30.38;;;;;;;;;;5014879;28;20034;-68
2022/01/01 04:40:54;;;;;;;49.83;28.03;;;;;;;;;;5014325;28;20080;-67
2022/01/01 04:43:20;;;;;;;49.45;28.77;;;;;;;;;;5015069;28;20267;-68
2022/01/01 04:45:46;;;;;;;47.70;26.63;;;;;;;;;;5014713;28;20385;-67
2022/01/01 04:48:12;;;;;;;40.53;25.90;;;;;;;;;;5014726;28;20018;-68
2022/01/01 04:50:37;;;;;;;44.35;24.08;;;;;;;;;;5014036;28;20041;-67
2022/01/01 04:53:03;;;;;;;40.30;24.80;;;;;;;;;;5014979;28;20021;-67
2022/01/01 04:55:29;;;;;;;43.15;25.08;;;;;;;;;;5014916;28;20156;-67
2022/01/01 04:57:55;;;;;;;44.58;24.67;;;;;;;;;;5014085;28;20032;-66
2022/01/01 05:00:20;;;;;;;41.70;25.10;;;;;;;;;;5014809;28;20511;-66
2022/01/01 05:02:46;;;;;;;44.25;25.30;;;;;;;;;;5014826;28;20022;-67
2022/01/01 05:05:12;;;;;;;42.03;24.05;;;;;;;;;;5014172;28;20033;-67
2022/01/01 05:07:37;;;;;;;42.78;24.15;;;;;;;;;;5014602;28;20087;-67
2022/01/01 05:10:05;;;;;;;39.42;23.38;;;;;;;;;;5014703;28;20100;-67
2022/01/01 05:12:31;;;;;;;41.50;24.05;;;;;;;;;;5013661;28;20441;-67
2022/01/01 05:14:56;;;;;;;38.58;23.20;;;;;;;;;;5013836;28;20088;-68
2022/01/01 05:17:22;;;;;;;35.67;21.17;;;;;;;;;;5014068;28;20026;-68
2022/01/01 05:19:48;;;;;;;38.15;23.23;;;;;;;;;;5013664;28;20100;-67
2022/01/01 05:22:14;;;;;;;40.30;24.58;;;;;;;;;;5013844;28;20018;-66
2022/01/01 05:24:40;;;;;;;39.38;23.13;;;;;;;;;;5014637;28;20459;-67
2022/01/01 05:27:05;;;;;;;37.67;21.30;;;;;;;;;;5014337;28;20021;-68
2022/01/01 05:29:31;;;;;;;36.67;21.83;;;;;;;;;;5014279;28;20045;-68
2022/01/01 05:31:57;;;;;;;41.95;24.33;;;;;;;;;;5013875;28;20048;-68
2022/01/01 05:34:22;;;;;;;39.78;24.05;;;;;;;;;;5013733;28;20053;-67
2022/01/01 05:36:48;;;;;;;51.58;26.75;;;;;;;;;;5013766;28;20029;-66
2022/01/01 05:39:14;;;;;;;40.40;24.73;;;;;;;;;;5023493;28;20343;-68
2022/01/01 05:41:40;;;;;;;39.40;23.88;;;;;;;;;;5027976;28;20045;-71
2022/01/01 05:44:05;;;;;;;44.78;24.60;;;;;;;;;;5053388;28;20101;-70
2022/01/01 05:46:32;;;;;;;46.65;26.10;;;;;;;;;;5053810;28;20503;-73
2022/01/01 05:48:58;;;;;;;54.35;31.15;;;;;;;;;;5050045;28;20028;-71
2022/01/01 05:51:24;;;;;;;62.60;29.33;;;;;;;;;;5051817;28;20025;-70
2022/01/01 05:53:50;;;;;;;49.72;28.02;;;;;;;;;;5053611;28;20070;-71
2022/01/01 05:56:15;;;;;;;47.60;26.98;;;;;;;;;;5053924;28;20100;-71
2022/01/01 05:58:41;;;;;;;42.28;24.75;;;;;;;;;;5040700;28;20065;-70
2022/01/01 06:01:07;;;;;;;37.45;23.30;;;;;;;;;;5033424;28;20025;-70
2022/01/01 06:03:33;;;;;;;49.25;27.33;;;;;;;;;;5033957;28;20029;-71
2022/01/01 06:05:58;;;;;;;43.88;24.13;;;;;;;;;;5037369;28;20056;-71
2022/01/01 06:08:28;;;;;;;37.53;20.70;;;;;;;;;;5043811;28;20136;-71
2022/01/01 06:10:54;;;;;;;45.55;28.23;;;;;;;;;;5053462;28;20021;-69
2022/01/01 06:13:20;;;;;;;51.50;28.33;;;;;;;;;;5054231;28;20025;-70
2022/01/01 06:15:46;;;;;;;44.97;26.77;;;;;;;;;;5048466;28;20044;-70
2022/01/01 06:18:12;;;;;;;44.00;25.80;;;;;;;;;;5034264;28;20488;-70
2022/01/01 06:20:38;;;;;;;46.53;26.67;;;;;;;;;;5034214;28;20084;-69
2022/01/01 06:23:05;;;;;;;45.50;27.15;;;;;;;;;;5032830;28;20128;-70
2022/01/01 06:25:33;;;;;;;42.83;25.20;;;;;;;;;;5033665;28;20029;-70
2022/01/01 06:27:59;;;;;;;39.70;23.67;;;;;;;;;;5034104;28;20041;-70
2022/01/01 06:30:24;;;;;;;55.20;29.23;;;;;;;;;;5039002;28;20433;-70
2022/01/01 06:32:51;;;;;;;48.63;26.02;;;;;;;;;;5039935;28;20030;-70
2022/01/01 06:35:17;;;;;;;39.15;23.48;;;;;;;;;;5033913;28;20037;-70
2022/01/01 06:37:43;;;;;;;40.80;22.83;;;;;;;;;;5034074;28;20037;-71
2022/01/01 06:40:09;;;;;;;35.75;21.77;;;;;;;;;;5033298;28;20126;-69
2022/01/01 06:42:35;;;;;;;38.67;24.15;;;;;;;;;;5033225;28;20135;-72
2022/01/01 06:45:01;;;;;;;44.33;27.70;;;;;;;;;;5032698;28;20017;-71
2022/01/01 06:47:27;;;;;;;44.17;26.95;;;;;;;;;;5032063;28;20081;-73
2022/01/01 06:49:52;;;;;;;43.00;27.52;;;;;;;;;;5033941;28;20105;-72
2022/01/01 06:52:18;;;;;;;42.00;27.40;;;;;;;;;;5057270;28;20056;-70
2022/01/01 06:54:44;;;;;;;43.75;26.98;;;;;;;;;;5073578;28;20021;-72
2022/01/01 06:57:10;;;;;;;50.40;29.85;;;;;;;;;;5051716;28;20082;-69
2022/01/01 06:59:35;;;;;;;37.42;24.90;;;;;;;;;;5045877;28;20022;-70
2022/01/01 07:02:01;;;;;;;47.78;27.13;;;;;;;;;;5034540;28;20373;-69
2022/01/01 07:04:27;;;;;;;40.90;26.02;;;;;;;;;;5036058;28;20392;-73
2022/01/01 07:06:53;;;;;;;36.55;25.30;;;;;;;;;;5037228;28;20063;-71
2022/01/01 07:09:18;;;;;;;46.38;29.75;;;;;;;;;;5052662;28;20090;-69
2022/01/01 07:11:44;;;;;;;46.00;30.65;;;;;;;;;;5051731;28;20021;-69
2022/01/01 07:14:11;;;;;;;49.63;31.00;;;;;;;;;;5050867;28;20410;-71
2022/01/01 07:16:37;;;;;;;44.03;28.95;;;;;;;;;;5052895;28;20059;-71
2022/01/01 07:19:03;;;;;;;42.13;27.40;;;;;;;;;;5067700;28;20025;-71
2022/01/01 07:21:29;;;;;;;46.78;27.70;;;;;;;;;;5072746;28;20108;-71
2022/01/01 07:23:54;;;;;;;44.95;28.67;;;;;;;;;;5050459;28;20082;-70
2022/01/01 07:26:20;;;;;;;41.65;25.65;;;;;;;;;;5033961;28;20485;-70
2022/01/01 07:28:46;;;;;;;46.75;29.25;;;;;;;;;;5031145;28;20507;-69
2022/01/01 07:31:11;;;;;;;50.47;30.10;;;;;;;;;;5032342;28;20389;-71
2022/01/01 07:33:37;;;;;;;46.83;31.17;;;;;;;;;;5032483;28;20044;-70
2022/01/01 07:36:03;;;;;;;49.83;31.15;;;;;;;;;;5032707;28;20041;-69
2022/01/01 07:38:29;;;;;;;45.72;29.42;;;;;;;;;;5031815;28;20037;-68
2022/01/01 07:40:55;;;;;;;46.95;29.67;;;;;;;;;;5031862;28;20037;-72
2022/01/01 07:43:22;;;;;;;45.92;30.08;;;;;;;;;;5032264;28;20036;-70
2022/01/01 07:45:49;;;;;;;46.83;31.05;;;;;;;;;;5031013;28;20594;-76
2022/01/01 07:48:14;;;;;;;46.90;30.23;;;;;;;;;;5031182;28;20116;-71
2022/01/01 07:50:41;;;;;;;47.97;30.35;;;;;;;;;;5032607;28;20037;-69
2022/01/01 07:53:08;;;;;;;43.10;28.67;;;;;;;;;;5031650;28;20032;-72
2022/01/01 07:55:33;;;;;;;47.58;28.02;;;;;;;;;;5031938;28;20025;-73
2022/01/01 07:57:59;;;;;;;45.30;27.45;;;;;;;;;;5030976;28;20494;-70
2022/01/01 08:00:25;;;;;;;43.55;28.40;;;;;;;;;;5032961;28;20034;-70
2022/01/01 08:02:51;;;;;;;44.67;25.98;;;;;;;;;;5032113;28;20365;-76
2022/01/01 08:05:17;;;;;;;47.22;28.02;;;;;;;;;;5031861;28;20068;-69
2022/01/01 08:07:44;;;;;;;43.13;26.20;;;;;;;;;;5031264;28;20083;-78
2022/01/01 08:10:11;;;;;;;41.25;24.48;;;;;;;;;;5030733;28;20216;-73
2022/01/01 08:12:38;;;;;;;38.63;26.27;;;;;;;;;;5031321;28;20101;-71
2022/01/01 08:15:05;;;;;;;41.65;26.40;;;;;;;;;;5032238;28;20404;-72
2022/01/01 08:17:31;;;;;;;41.40;26.02;;;;;;;;;;5031264;28;20098;-70
2022/01/01 08:19:57;;;;;;;38.97;25.60;;;;;;;;;;5034436;28;20041;-74
2022/01/01 08:22:23;;;;;;;39.92;26.35;;;;;;;;;;5071970;28;20048;-74
2022/01/01 08:24:49;;;;;;;41.92;26.13;;;;;;;;;;5063609;28;20411;-75
2022/01/01 08:27:15;;;;;;;39.17;25.42;;;;;;;;;;5041521;28;20025;-72
2022/01/01 08:29:41;;;;;;;51.28;28.55;;;;;;;;;;5069015;28;20090;-72
2022/01/01 08:32:07;;;;;;;44.45;28.83;;;;;;;;;;5071019;28;20029;-74
2022/01/01 08:34:34;;;;;;;48.63;30.98;;;;;;;;;;5071205;28;20082;-72
2022/01/01 08:36:59;;;;;;;57.15;37.95;;;;;;;;;;5069789;28;20029;-72
2022/01/01 08:39:25;;;;;;;62.42;38.00;;;;;;;;;;5069102;28;20125;-72
2022/01/01 08:41:51;;;;;;;61.53;38.42;;;;;;;;;;5070639;28;20044;-72
2022/01/01 08:44:17;;;;;;;65.55;38.88;;;;;;;;;;5062098;28;20088;-73
2022/01/01 08:46:42;;;;;;;57.88;38.58;;;;;;;;;;5040306;28;20037;-74
2022/01/01 08:49:09;;;;;;;56.67;38.38;;;;;;;;;;5030895;28;20045;-71
2022/01/01 08:51:35;;;;;;;54.75;36.85;;;;;;;;;;5029887;28;20104;-72
2022/01/01 08:54:02;;;;;;;50.17;31.90;;;;;;;;;;5030187;28;20034;-72
2022/01/01 08:56:29;;;;;;;41.40;25.90;;;;;;;;;;5040568;28;20072;-73
2022/01/01 08:58:54;;;;;;;45.08;27.23;;;;;;;;;;5029683;28;20057;-70
2022/01/01 09:01:20;;;;;;;38.08;25.52;;;;;;;;;;5036593;28;20060;-71
2022/01/01 09:03:47;;;;;;;35.78;23.80;;;;;;;;;;5035625;28;20116;-71
2022/01/01 09:06:12;;;;;;;40.63;25.35;;;;;;;;;;5033448;28;20033;-73
2022/01/01 09:08:41;;;;;;;38.65;23.58;;;;;;;;;;5039608;28;20030;-72
2022/01/01 09:11:09;;;;;;;40.05;23.25;;;;;;;;;;5041254;28;20103;-72
2022/01/01 09:13:35;;;;;;;50.95;28.33;;;;;;;;;;5050579;28;20134;-73
2022/01/01 09:16:01;;;;;;;42.40;28.80;;;;;;;;;;5044781;28;20018;-73
2022/01/01 09:18:27;;;;;;;47.40;27.55;;;;;;;;;;5047261;28;20044;-71
2022/01/01 09:20:53;;;;;;;44.45;29.38;;;;;;;;;;5038787;28;20033;-70
2022/01/01 09:23:19;;;;;;;51.03;30.88;;;;;;;;;;5037942;28;20033;-69
2022/01/01 09:25:45;;;;;;;50.58;30.23;;;;;;;;;;5032949;28;20101;-71
2022/01/01 09:28:10;;;;;;;28.15;18.40;;;;;;;;;;5049250;28;20484;-70
2022/01/01 09:30:36;;;;;;;24.98;15.80;;;;;;;;;;5043082;28;20077;-70
2022/01/01 09:33:03;;;;;;;36.45;22.05;;;;;;;;;;5032316;28;20083;-69
2022/01/01 09:35:29;;;;;;;26.55;16.92;;;;;;;;;;5036731;28;20083;-70
2022/01/01 09:37:54;;;;;;;32.60;18.23;;;;;;;;;;5036763;28;20484;-72
2022/01/01 09:40:20;;;;;;;28.50;17.92;;;;;;;;;;5031482;28;20415;-70
2022/01/01 09:42:47;;;;;;;32.08;22.45;;;;;;;;;;5032371;28;20049;-71
2022/01/01 09:45:12;;;;;;;39.20;26.67;;;;;;;;;;5032200;28;20022;-71
2022/01/01 09:47:39;;;;;;;35.55;22.15;;;;;;;;;;5031757;28;20052;-76
2022/01/01 09:50:06;;;;;;;31.20;20.13;;;;;;;;;;5031215;28;20139;-71
2022/01/01 09:52:33;;;;;;;20.98;15.98;;;;;;;;;;5031024;28;20033;-73
2022/01/01 09:54:58;;;;;;;28.60;17.02;;;;;;;;;;5031187;28;20028;-75
2022/01/01 09:57:24;;;;;;;26.08;17.35;;;;;;;;;;5032351;28;20388;-70
2022/01/01 09:59:50;;;;;;;26.17;17.45;;;;;;;;;;5033725;28;20073;-70
2022/01/01 10:02:16;;;;;;;28.75;16.65;;;;;;;;;;5032218;28;20043;-70
2022/01/01 10:04:44;;;;;;;19.85;13.93;;;;;;;;;;5033266;28;20040;-73
2022/01/01 10:07:12;;;;;;;24.08;16.08;;;;;;;;;;5032694;28;20116;-70
2022/01/01 10:09:37;;;;;;;25.35;14.30;;;;;;;;;;5033692;28;20041;-74
2022/01/01 10:12:09;;;;;;;30.00;16.75;;;;;;;;;;5033467;28;20083;-72
2022/01/01 10:14:44;;;;;;;32.97;19.70;;;;;;;;;;5033072;28;20040;-73
2022/01/01 10:17:20;;;;;;;24.60;16.55;;;;;;;;;;5033828;28;20060;-70
2022/01/01 10:19:48;;;;;;;24.92;18.48;;;;;;;;;;5032434;28;20042;-73
2022/01/01 10:22:18;;;;;;;25.92;17.63;;;;;;;;;;5033044;28;20495;-69
2022/01/01 10:27:47;;;;;;;25.83;16.58;;;;;;;;;;5030512;28;20044;-71
2022/01/01 10:30:18;;;;;;;27.13;17.80;;;;;;;;;;5033299;28;20077;-71
2022/01/01 10:33:12;;;;;;;24.27;16.55;;;;;;;;;;5031695;28;20045;-71
2022/01/01 10:35:42;;;;;;;24.10;15.90;;;;;;;;;;5033601;28;20068;-73
2022/01/01 10:38:12;;;;;;;29.92;19.17;;;;;;;;;;5038328;28;20095;-73
2022/01/01 10:40:38;;;;;;;29.95;19.88;;;;;;;;;;5035887;28;20116;-73
2022/01/01 10:43:04;;;;;;;30.92;21.42;;;;;;;;;;5037163;28;20022;-74
2022/01/01 10:45:47;;;;;;;40.83;25.40;;;;;;;;;;5051747;28;20036;-71
2022/01/01 10:51:07;;;;;;;32.42;21.80;;;;;;;;;;5050635;28;20247;-72
2022/01/01 10:53:34;;;;;;;40.42;25.33;;;;;;;;;;5069376;28;20044;-71
2022/01/01 10:56:02;;;;;;;41.50;25.45;;;;;;;;;;5056530;28;20036;-71
2022/01/01 10:58:32;;;;;;;42.15;25.77;;;;;;;;;;5050286;28;20017;-71
2022/01/01 11:01:03;;;;;;;38.85;24.50;;;;;;;;;;5045338;28;20365;-71
2022/01/01 11:03:34;;;;;;;33.63;23.77;;;;;;;;;;5031524;28;20029;-71
2022/01/01 11:06:11;;;;;;;33.42;22.35;;;;;;;;;;5032196;28;20388;-70
2022/01/01 11:08:40;;;;;;;33.80;21.45;;;;;;;;;;5031830;28;20034;-69
2022/01/01 11:11:06;;;;;;;33.30;22.42;;;;;;;;;;5031479;28;20026;-71
2022/01/01 11:13:33;;;;;;;34.20;21.90;;;;;;;;;;5031149;28;20033;-71
2022/01/01 11:15:59;;;;;;;27.55;19.38;;;;;;;;;;5031735;28;20112;-71
2022/01/01 11:18:26;;;;;;;33.40;22.35;;;;;;;;;;5031303;28;20037;-70
2022/01/01 11:20:52;;;;;;;60.15;35.97;;;;;;;;;;5031109;28;20475;-69
2022/01/01 11:23:19;;;;;;;74.53;38.33;;;;;;;;;;5031576;28;20034;-71
2022/01/01 11:25:45;;;;;;;30.27;19.55;;;;;;;;;;5031253;28;20376;-72
2022/01/01 11:28:14;;;;;;;35.33;23.20;;;;;;;;;;5034287;28;20455;-69
2022/01/01 11:31:03;;;;;;;34.47;24.40;;;;;;;;;;5030919;28;20041;-71
2022/01/01 11:33:43;;;;;;;35.55;24.35;;;;;;;;;;5031827;28;20369;-70
2022/01/01 11:36:18;;;;;;;31.10;21.33;;;;;;;;;;5031765;28;20041;-71
2022/01/01 11:38:44;;;;;;;25.38;16.00;;;;;;;;;;5032074;28;20037;-71
2022/01/01 11:41:13;;;;;;;25.65;15.63;;;;;;;;;;5031895;28;20021;-70
2022/01/01 11:43:52;;;;;;;25.23;17.73;;;;;;;;;;5031281;28;20026;-70
2022/01/01 11:46:29;;;;;;;46.88;35.90;;;;;;;;;;5030979;28;20026;-72
2022/01/01 11:49:04;;;;;;;22.23;14.73;;;;;;;;;;5031062;28;20116;-76
2022/01/01 11:51:33;;;;;;;23.10;14.95;;;;;;;;;;5030147;28;20025;-71
2022/01/01 11:54:25;;;;;;;23.77;12.63;;;;;;;;;;5031608;28;20072;-69
2022/01/01 11:56:51;;;;;;;25.13;13.85;;;;;;;;;;5031712;28;20099;-75
2022/01/01 11:59:20;;;;;;;17.25;11.35;;;;;;;;;;5030731;28;20029;-73
2022/01/01 12:01:50;;;;;;;15.05;10.02;;;;;;;;;;5031993;28;20029;-73
2022/01/01 12:04:36;;;;;;;16.05;10.88;;;;;;;;;;5031796;28;20084;-70
2022/01/01 12:07:17;;;;;;;15.52;10.20;;;;;;;;;;5032472;28;20030;-71
2022/01/01 12:10:02;;;;;;;14.07;9.05;;;;;;;;;;5031926;28;20155;-71
2022/01/01 12:12:50;;;;;;;16.70;10.15;;;;;;;;;;5030765;28;20057;-71
2022/01/01 12:15:16;;;;;;;16.33;10.10;;;;;;;;;;5030614;28;20460;-70
2022/01/01 12:17:49;;;;;;;16.70;10.55;;;;;;;;;;5031415;28;20076;-71
2022/01/01 12:20:22;;;;;;;17.48;12.27;;;;;;;;;;5031437;28;20033;-73
2022/01/01 12:22:49;;;;;;;15.50;11.00;;;;;;;;;;5030301;28;20033;-73
2022/01/01 12:25:17;;;;;;;20.60;14.65;;;;;;;;;;5030104;28;20278;-70
2022/01/01 12:27:47;;;;;;;19.30;12.18;;;;;;;;;;5031808;28;20073;-69
2022/01/01 12:30:37;;;;;;;22.30;13.38;;;;;;;;;;5031566;28;20047;-76
2022/01/01 12:33:04;;;;;;;18.02;11.65;;;;;;;;;;5029863;28;20029;-70
2022/01/01 12:35:41;;;;;;;16.75;11.15;;;;;;;;;;5031350;28;20072;-70
2022/01/01 12:38:15;;;;;;;15.43;10.95;;;;;;;;;;5030986;28;20041;-70
2022/01/01 12:40:59;;;;;;;16.08;11.07;;;;;;;;;;5031733;28;20041;-71
2022/01/01 12:43:27;;;;;;;15.45;10.27;;;;;;;;;;5033120;28;20037;-70
2022/01/01 12:45:54;;;;;;;17.17;10.70;;;;;;;;;;5035761;28;20073;-72
2022/01/01 12:48:28;;;;;;;28.90;17.48;;;;;;;;;;5035550;28;20033;-70
2022/01/01 12:51:09;;;;;;;27.42;16.75;;;;;;;;;;5035854;28;20396;-72
2022/01/01 12:53:38;;;;;;;25.80;16.13;;;;;;;;;;5035875;28;20037;-71
2022/01/01 12:56:10;;;;;;;26.45;16.40;;;;;;;;;;5035262;28;20421;-70
2022/01/01 12:58:42;;;;;;;27.85;17.60;;;;;;;;;;5041216;28;20411;-71
2022/01/01 13:01:11;;;;;;;26.40;16.45;;;;;;;;;;5047432;28;20030;-71
2022/01/01 13:03:38;;;;;;;21.98;15.52;;;;;;;;;;5035800;28;20388;-70
2022/01/01 13:06:04;;;;;;;24.35;14.50;;;;;;;;;;5035158;28;20030;-71
2022/01/01 13:08:30;;;;;;;20.92;13.98;;;;;;;;;;5049151;28;20031;-71
2022/01/01 13:10:56;;;;;;;23.63;15.25;;;;;;;;;;5054987;28;20033;-71
2022/01/01 13:13:28;;;;;;;29.52;18.55;;;;;;;;;;5055318;28;20029;-71
2022/01/01 13:15:55;;;;;;;25.48;16.60;;;;;;;;;;5053625;28;20487;-71
2022/01/01 13:18:26;;;;;;;26.48;15.00;;;;;;;;;;5045335;28;20029;-70
2022/01/01 13:20:54;;;;;;;23.83;15.70;;;;;;;;;;5034307;28;20025;-70
2022/01/01 13:23:22;;;;;;;17.80;11.93;;;;;;;;;;5035362;28;20432;-71
2022/01/01 13:25:47;;;;;;;20.52;12.77;;;;;;;;;;5035166;28;20112;-71
2022/01/01 13:28:14;;;;;;;21.70;14.18;;;;;;;;;;5035139;28;20035;-73
2022/01/01 13:30:41;;;;;;;20.73;13.95;;;;;;;;;;5034659;28;20073;-71
2022/01/01 13:33:07;;;;;;;22.45;14.18;;;;;;;;;;5034635;28;20539;-69
2022/01/01 13:35:33;;;;;;;24.00;14.30;;;;;;;;;;5048726;28;20125;-69
2022/01/01 13:37:59;;;;;;;25.83;15.95;;;;;;;;;;5052026;28;20033;-70
2022/01/01 13:40:25;;;;;;;22.40;13.98;;;;;;;;;;5054672;28;20044;-70
2022/01/01 13:42:50;;;;;;;20.48;13.55;;;;;;;;;;5054774;28;20029;-69
2022/01/01 13:45:16;;;;;;;21.30;15.70;;;;;;;;;;5054398;28;20048;-70
2022/01/01 13:47:42;;;;;;;24.58;15.15;;;;;;;;;;5053316;28;20103;-72
2022/01/01 13:50:14;;;;;;;24.33;15.75;;;;;;;;;;5054847;28;20033;-74
2022/01/01 13:52:41;;;;;;;23.25;15.52;;;;;;;;;;5054544;28;20035;-68
2022/01/01 13:55:10;;;;;;;23.48;15.25;;;;;;;;;;5053361;28;20464;-70
2022/01/01 13:57:38;;;;;;;24.15;16.38;;;;;;;;;;5053633;28;20484;-71
2022/01/01 14:00:05;;;;;;;23.90;15.73;;;;;;;;;;5054456;28;20089;-71
2022/01/01 14:02:39;;;;;;;24.20;15.15;;;;;;;;;;5053642;28;20420;-71
2022/01/01 14:05:05;;;;;;;22.33;14.50;;;;;;;;;;5054357;28;20071;-70
2022/01/01 14:07:31;;;;;;;25.00;15.98;;;;;;;;;;5054414;28;20036;-71
2022/01/01 14:10:06;;;;;;;21.73;15.15;;;;;;;;;;5054181;28;20033;-70
2022/01/01 14:12:34;;;;;;;26.27;16.00;;;;;;;;;;5054423;28;20500;-70
2022/01/01 14:15:02;;;;;;;23.35;15.73;;;;;;;;;;5053511;28;20379;-73
2022/01/01 14:18:09;;;;;;;32.20;17.15;;;;;;;;;;5053701;28;20390;-69
2022/01/01 14:20:50;;;;;;;25.67;15.63;;;;;;;;;;5054214;28;20483;-71
2022/01/01 14:23:32;;;;;;;23.83;16.35;;;;;;;;;;5054341;28;20045;-71
2022/01/01 14:26:06;;;;;;;29.63;17.33;;;;;;;;;;5053044;28;20025;-71
2022/01/01 14:28:33;;;;;;;26.13;16.08;;;;;;;;;;5053122;28;20547;-70
2022/01/01 14:31:00;;;;;;;26.73;17.02;;;;;;;;;;5053849;28;20116;-69